Time;durP1;ratioP1;P1;durP2;ratioP2;P2;SDS_P1;SDS_P2;PMS_P1;PMS_P2;Temp;Humidity;BMP_temperature;BMP_pressure;BME280_temperature;BME280_humidity;BME280_pressure;Samples;Min_cycle;Max_cycle;Signal;HPM_P1;HPM_P2
2022/09/22 00:01:10;;;;;;;14.23;5.32;;;;;;;9.35;100.00;102486.47;5069036;28;20039;-71
2022/09/22 00:03:38;;;;;;;12.93;6.38;;;;;;;9.35;100.00;102479.47;5046101;28;20032;-71
2022/09/22 00:06:12;;;;;;;8.57;5.53;;;;;;;9.33;100.00;102477.59;5068862;28;20397;-71
2022/09/22 00:08:40;;;;;;;9.57;5.45;;;;;;;9.32;100.00;102478.44;5045618;28;20068;-72
2022/09/22 00:11:16;;;;;;;10.63;5.38;;;;;;;9.28;100.00;102472.16;5077532;28;20042;-71
2022/09/22 00:13:49;;;;;;;9.93;5.22;;;;;;;9.26;100.00;102465.91;5083451;28;20025;-72
2022/09/22 00:16:14;;;;;;;8.05;5.25;;;;;;;9.25;100.00;102462.38;5085657;28;20526;-71
2022/09/22 00:18:40;;;;;;;7.05;4.90;;;;;;;9.21;100.00;102457.81;5076061;28;20112;-72
2022/09/22 00:21:14;;;;;;;14.10;5.43;;;;;;;9.19;100.00;102463.81;5073961;28;20034;-72
2022/09/22 00:23:41;;;;;;;9.02;5.13;;;;;;;9.18;100.00;102459.38;5072050;28;20024;-72
2022/09/22 00:26:09;;;;;;;9.52;4.78;;;;;;;9.16;100.00;102463.69;5083262;28;20102;-72
2022/09/22 00:28:37;;;;;;;8.98;5.00;;;;;;;9.10;100.00;102454.66;5073524;28;20029;-70
2022/09/22 00:31:07;;;;;;;10.13;5.18;;;;;;;9.09;100.00;102459.84;5056547;28;20028;-71
2022/09/22 00:33:33;;;;;;;7.03;3.85;;;;;;;9.09;100.00;102455.47;5076601;28;20028;-71
2022/09/22 00:36:00;;;;;;;8.80;5.07;;;;;;;9.05;100.00;102450.91;5073762;28;20372;-69
2022/09/22 00:38:26;;;;;;;10.15;4.68;;;;;;;9.05;100.00;102461.41;5090596;28;20364;-71
2022/09/22 00:40:51;;;;;;;12.90;5.22;;;;;;;9.02;100.00;102456.03;5079642;28;20134;-71
2022/09/22 00:43:24;;;;;;;6.82;4.25;;;;;;;9.01;100.00;102455.94;5072674;28;20033;-71
2022/09/22 00:46:08;;;;;;;10.00;4.75;;;;;;;8.97;100.00;102452.25;5073408;28;20325;-71
2022/09/22 00:48:38;;;;;;;12.75;5.18;;;;;;;8.97;100.00;102452.25;5074817;28;20068;-71
2022/09/22 00:51:06;;;;;;;11.25;4.88;;;;;;;8.93;100.00;102450.31;5071596;28;20129;-71
2022/09/22 00:53:33;;;;;;;12.02;5.32;;;;;;;8.90;100.00;102453.69;5089853;28;20036;-72
2022/09/22 00:56:06;;;;;;;6.97;4.50;;;;;;;8.91;100.00;102449.31;5057906;28;20029;-72
2022/09/22 00:58:40;;;;;;;8.53;4.27;;;;;;;8.90;100.00;102445.81;5077158;28;20036;-72
2022/09/22 01:01:08;;;;;;;9.68;5.32;;;;;;;8.87;100.00;102445.66;5073147;28;20521;-72
2022/09/22 01:03:34;;;;;;;8.95;4.45;;;;;;;8.84;100.00;102439.34;5082649;28;20430;-72
2022/09/22 01:06:01;;;;;;;7.10;4.95;;;;;;;8.84;100.00;102439.34;5056766;28;20017;-72
2022/09/22 01:08:30;;;;;;;10.45;4.55;;;;;;;8.85;100.00;102430.66;5079627;28;20710;-71
2022/09/22 01:10:58;;;;;;;8.98;4.88;;;;;;;8.84;100.00;102435.00;5072093;28;20052;-72
2022/09/22 01:13:30;;;;;;;9.65;4.97;;;;;;;8.86;100.00;102437.72;5077772;28;20028;-72
2022/09/22 01:16:18;;;;;;;9.07;4.32;;;;;;;8.83;100.00;102434.91;5079323;28;20484;-72
2022/09/22 01:18:57;;;;;;;10.60;5.63;;;;;;;8.80;100.00;102432.16;5086814;28;20036;-71
2022/09/22 01:21:58;;;;;;;10.63;3.80;;;;;;;8.76;100.00;102432.00;5075452;28;20044;-71
2022/09/22 01:25:03;;;;;;;8.02;4.57;;;;;;;8.72;100.00;102422.19;5044380;28;20373;-71
2022/09/22 01:27:31;;;;;;;7.82;3.92;;;;;;;8.70;100.00;102421.19;5083326;28;20499;-71
2022/09/22 01:30:16;;;;;;;12.30;4.70;;;;;;;8.69;100.00;102419.38;5072108;28;20097;-72
2022/09/22 01:33:06;;;;;;;12.18;4.60;;;;;;;8.69;100.00;102415.88;5070889;28;20039;-73
2022/09/22 01:35:50;;;;;;;7.00;4.28;;;;;;;8.69;100.00;102414.13;5083017;28;20016;-72
2022/09/22 01:38:31;;;;;;;;;;;;;;;8.68;100.00;102412.38;5088054;28;20055;-72
2022/09/22 01:41:09;;;;;;;6.45;3.72;;;;;;;8.67;100.00;102407.94;5061040;28;19924;-71
2022/09/22 01:43:46;;;;;;;8.98;4.15;;;;;;;8.63;100.00;102403.34;5073289;28;20017;-72
2022/09/22 01:46:21;;;;;;;6.60;3.92;;;;;;;8.61;100.00;102405.00;5072682;28;20032;-72
2022/09/22 01:48:50;;;;;;;8.70;4.13;;;;;;;8.59;100.00;102398.78;5084168;28;20032;-72
2022/09/22 01:51:29;;;;;;;9.52;4.07;;;;;;;8.57;100.00;102401.34;5072441;28;20078;-71
2022/09/22 01:53:59;;;;;;;6.88;4.22;;;;;;;8.54;100.00;102395.91;5086866;28;20019;-71
2022/09/22 01:56:27;;;;;;;6.45;4.88;;;;;;;8.55;100.00;102392.47;5086469;28;20039;-71
2022/09/22 01:58:58;;;;;;;10.43;4.07;;;;;;;8.54;100.00;102392.41;5085959;28;20125;-71
2022/09/22 02:01:28;;;;;;;15.52;4.80;;;;;;;8.52;100.00;102383.53;5080705;28;20066;-71
2022/09/22 02:04:00;;;;;;;7.53;3.88;;;;;;;8.51;100.00;102379.13;5077095;28;20043;-71
2022/09/22 02:06:42;;;;;;;10.63;4.40;;;;;;;8.52;100.00;102378.28;5071498;28;20468;-72
2022/09/22 02:09:15;;;;;;;10.25;4.45;;;;;;;8.52;100.00;102378.28;5056818;28;20024;-71
2022/09/22 02:11:41;;;;;;;7.88;4.65;;;;;;;8.50;100.00;102379.94;5063800;28;20036;-70
2022/09/22 02:14:07;;;;;;;8.35;4.35;;;;;;;8.49;100.00;102372.91;5070356;28;20031;-70
2022/09/22 02:16:33;;;;;;;9.50;4.43;;;;;;;8.48;100.00;102373.72;5071504;28;20063;-72
2022/09/22 02:19:15;;;;;;;8.75;4.50;;;;;;;8.43;100.00;102374.34;5056779;28;20027;-72
2022/09/22 02:21:43;;;;;;;12.68;4.13;;;;;;;8.43;100.00;102376.97;5045158;28;20029;-71
2022/09/22 02:24:33;;;;;;;8.65;4.50;;;;;;;8.40;100.00;102368.06;5065569;28;20021;-71
2022/09/22 02:27:03;;;;;;;7.75;4.10;;;;;;;8.40;100.00;102373.31;5054012;28;20039;-72
2022/09/22 02:29:32;;;;;;;6.35;4.45;;;;;;;8.35;100.00;102380.94;5051905;28;20480;-72
2022/09/22 02:32:01;;;;;;;7.13;3.97;;;;;;;8.33;100.00;102377.34;5051988;28;20075;-71
2022/09/22 02:34:27;;;;;;;11.82;4.60;;;;;;;8.32;100.00;102375.53;5051309;28;20115;-71
2022/09/22 02:37:07;;;;;;;11.30;4.20;;;;;;;8.30;100.00;102374.56;5064518;28;20104;-72
2022/09/22 02:39:41;;;;;;;8.80;4.90;;;;;;;8.31;100.00;102372.84;5060631;28;20040;-70
2022/09/22 02:42:29;;;;;;;8.80;4.03;;;;;;;8.26;100.00;102375.22;5055290;28;20027;-71
2022/09/22 02:45:38;;;;;;;9.65;4.38;;;;;;;8.25;100.00;102369.09;5055905;28;20021;-72
2022/09/22 02:48:11;;;;;;;10.23;4.20;;;;;;;8.23;100.00;102364.59;5023812;28;20044;-71
2022/09/22 02:50:37;;;;;;;7.70;4.15;;;;;;;8.21;100.00;102371.50;5049311;28;20024;-71
2022/09/22 02:53:12;;;;;;;5.50;4.28;;;;;;;8.19;100.00;102367.88;5074614;28;20380;-71
2022/09/22 02:55:37;;;;;;;11.75;4.43;;;;;;;8.19;100.00;102358.31;5074699;28;20059;-70
2022/09/22 02:58:03;;;;;;;7.53;4.10;;;;;;;8.19;100.00;102360.00;5066207;28;20115;-71
2022/09/22 03:00:28;;;;;;;5.75;3.85;;;;;;;8.17;100.00;102364.28;5066610;28;20380;-71
2022/09/22 03:02:53;;;;;;;6.97;4.05;;;;;;;8.15;100.00;102360.69;5066888;28;20389;-72
2022/09/22 03:05:19;;;;;;;9.18;4.00;;;;;;;8.15;100.00;102356.31;5055499;28;20025;-71
2022/09/22 03:07:44;;;;;;;12.07;4.72;;;;;;;8.14;100.00;102361.50;5061798;28;20028;-71
2022/09/22 03:10:10;;;;;;;8.85;4.10;;;;;;;8.14;100.00;102358.88;5056759;28;20049;-70
2022/09/22 03:12:41;;;;;;;8.07;3.90;;;;;;;8.09;100.00;102356.91;5048643;28;20024;-70
2022/09/22 03:15:10;;;;;;;8.23;4.13;;;;;;;8.10;100.00;102352.59;5038761;28;20060;-71
2022/09/22 03:17:36;;;;;;;7.20;4.60;;;;;;;8.09;100.00;102342.91;5056518;28;20024;-70
2022/09/22 03:20:05;;;;;;;11.05;4.00;;;;;;;8.09;100.00;102346.44;5054263;28;20032;-71
2022/09/22 03:22:31;;;;;;;12.88;4.50;;;;;;;8.06;100.00;102346.28;5049189;28;20030;-72
2022/09/22 03:24:57;;;;;;;8.43;4.25;;;;;;;8.05;100.00;102349.72;5036392;28;20037;-71
2022/09/22 03:27:22;;;;;;;9.05;4.07;;;;;;;8.04;100.00;102342.66;5057153;28;20484;-72
2022/09/22 03:29:48;;;;;;;6.40;4.05;;;;;;;8.03;100.00;102340.88;5053526;28;20032;-72
2022/09/22 03:32:13;;;;;;;8.02;4.22;;;;;;;8.03;100.00;102342.59;5046902;28;20051;-71
2022/09/22 03:34:38;;;;;;;6.50;4.10;;;;;;;7.97;100.00;102335.31;5054442;28;20035;-70
2022/09/22 03:37:04;;;;;;;6.00;4.22;;;;;;;7.94;100.00;102328.19;5054880;28;20029;-70
2022/09/22 03:39:29;;;;;;;7.25;4.18;;;;;;;7.96;100.00;102330.88;5059784;28;20035;-70
2022/09/22 03:41:55;;;;;;;8.75;4.40;;;;;;;7.93;100.00;102334.28;5071318;28;20387;-72
2022/09/22 03:44:20;;;;;;;10.48;4.20;;;;;;;7.90;100.00;102334.09;5064929;28;20445;-71
2022/09/22 03:46:45;;;;;;;8.30;4.95;;;;;;;7.90;100.00;102335.84;5054662;28;20021;-71
2022/09/22 03:49:11;;;;;;;9.38;5.35;;;;;;;7.88;100.00;102337.47;5057050;28;20020;-71
2022/09/22 03:51:36;;;;;;;7.93;4.57;;;;;;;7.88;100.00;102334.84;5052710;28;20024;-71
2022/09/22 03:54:02;;;;;;;5.45;4.43;;;;;;;7.86;100.00;102336.50;5067647;28;20035;-71
2022/09/22 03:56:27;;;;;;;6.75;4.25;;;;;;;7.83;100.00;102325.88;5072950;28;20041;-71
2022/09/22 03:58:53;;;;;;;6.63;4.13;;;;;;;7.84;100.00;102327.63;5069214;28;20436;-71
2022/09/22 04:01:18;;;;;;;7.03;4.65;;;;;;;7.76;100.00;102329.88;5053155;28;20032;-71
2022/09/22 04:03:45;;;;;;;6.70;3.83;;;;;;;7.72;100.00;102333.16;5050957;28;20032;-72
2022/09/22 04:06:10;;;;;;;7.43;4.50;;;;;;;7.76;100.00;102328.16;5054409;28;20229;-71
2022/09/22 04:08:36;;;;;;;8.32;4.10;;;;;;;7.75;100.00;102333.31;5053526;28;20032;-71
2022/09/22 04:11:03;;;;;;;13.02;5.35;;;;;;;7.77;100.00;102326.41;5071609;28;20044;-71
2022/09/22 04:13:28;;;;;;;13.82;5.55;;;;;;;7.74;100.00;102327.16;5082435;28;20506;-71
2022/09/22 04:15:54;;;;;;;14.23;4.97;;;;;;;7.75;100.00;102325.47;5076131;28;20024;-71
2022/09/22 04:18:19;;;;;;;10.85;5.05;;;;;;;7.72;100.00;102326.19;5073084;28;20035;-71
2022/09/22 04:20:45;;;;;;;8.18;4.97;;;;;;;7.71;100.00;102329.63;5067732;28;20044;-70
2022/09/22 04:23:11;;;;;;;11.35;5.35;;;;;;;7.69;100.00;102320.81;5079878;28;20052;-70
2022/09/22 04:25:37;;;;;;;14.18;6.40;;;;;;;7.69;100.00;102318.19;5090448;28;20039;-69
2022/09/22 04:28:06;;;;;;;12.02;6.10;;;;;;;7.69;100.00;102332.97;5085414;28;20028;-69
2022/09/22 04:30:33;;;;;;;13.98;6.90;;;;;;;7.67;100.00;102319.81;5076945;28;20020;-71
2022/09/22 04:32:59;;;;;;;14.68;6.95;;;;;;;7.66;100.00;102322.34;5075095;28;20029;-70
2022/09/22 04:35:27;;;;;;;12.32;5.70;;;;;;;7.65;100.00;102320.53;5088662;28;20028;-70
2022/09/22 04:37:54;;;;;;;9.93;5.55;;;;;;;7.62;100.00;102321.28;5091154;28;20086;-71
2022/09/22 04:40:20;;;;;;;11.18;5.35;;;;;;;7.63;100.00;102323.09;5074653;28;20050;-70
2022/09/22 04:42:45;;;;;;;10.30;4.80;;;;;;;7.60;100.00;102317.69;5082206;28;20114;-70
2022/09/22 04:45:11;;;;;;;12.50;5.70;;;;;;;7.57;100.00;102314.94;5090013;28;20115;-71
2022/09/22 04:47:37;;;;;;;12.38;5.75;;;;;;;7.55;100.00;102316.56;5076738;28;20115;-71
2022/09/22 04:50:02;;;;;;;10.82;5.20;;;;;;;7.54;100.00;102314.75;5073086;28;20485;-71
2022/09/22 04:52:28;;;;;;;10.63;5.32;;;;;;;7.51;100.00;102319.81;5070705;28;20024;-71
2022/09/22 04:54:53;;;;;;;6.80;5.00;;;;;;;7.49;100.00;102319.75;5073191;28;20495;-72
2022/09/22 04:57:18;;;;;;;7.03;5.50;;;;;;;7.49;100.00;102316.22;5071417;28;20020;-72
2022/09/22 04:59:44;;;;;;;8.75;5.88;;;;;;;7.46;100.00;102321.28;5073024;28;20476;-72
2022/09/22 05:02:09;;;;;;;10.57;5.75;;;;;;;7.46;100.00;102319.59;5075691;28;20115;-71
2022/09/22 05:04:34;;;;;;;8.25;5.68;;;;;;;7.46;100.00;102316.06;5082777;28;20020;-70
2022/09/22 05:07:00;;;;;;;17.90;5.63;;;;;;;7.44;100.00;102323.84;5072561;28;20039;-70
2022/09/22 05:09:25;;;;;;;9.35;5.63;;;;;;;7.45;100.00;102317.78;5069220;28;20032;-69
2022/09/22 05:11:50;;;;;;;10.35;5.07;;;;;;;7.46;100.00;102321.28;5073883;28;20111;-70
2022/09/22 05:14:16;;;;;;;10.23;5.30;;;;;;;7.42;100.00;102318.53;5073536;28;20488;-71
2022/09/22 05:16:42;;;;;;;10.88;5.90;;;;;;;7.42;100.00;102318.53;5082023;28;20035;-70
2022/09/22 05:19:08;;;;;;;11.02;5.88;;;;;;;7.41;100.00;102316.72;5069388;28;20032;-72
2022/09/22 05:21:35;;;;;;;13.13;6.43;;;;;;;7.40;100.00;102320.13;5071040;28;20486;-73
2022/09/22 05:24:01;;;;;;;6.72;5.10;;;;;;;7.40;100.00;102319.25;5070417;28;20083;-71
2022/09/22 05:26:26;;;;;;;11.25;5.82;;;;;;;7.39;100.00;102321.00;5068189;28;20480;-70
2022/09/22 05:28:51;;;;;;;10.88;7.00;;;;;;;7.40;100.00;102322.75;5071561;28;20033;-73
2022/09/22 05:31:17;;;;;;;12.98;6.80;;;;;;;7.40;100.00;102316.63;5072598;28;20495;-73
2022/09/22 05:33:42;;;;;;;10.90;6.22;;;;;;;7.37;100.00;102320.00;5072799;28;20032;-71
2022/09/22 05:36:08;;;;;;;11.52;6.90;;;;;;;7.37;100.00;102320.00;5072393;28;20469;-72
2022/09/22 05:38:33;;;;;;;12.68;6.70;;;;;;;7.38;100.00;102323.50;5071459;28;20036;-73
2022/09/22 05:40:58;;;;;;;15.07;7.25;;;;;;;7.37;100.00;102320.00;5072370;28;20178;-70
2022/09/22 05:43:24;;;;;;;15.50;6.68;;;;;;;7.37;100.00;102326.97;5071939;28;20096;-70
2022/09/22 05:45:49;;;;;;;10.50;7.30;;;;;;;7.37;100.00;102319.09;5072135;28;20028;-70
2022/09/22 05:48:14;;;;;;;10.60;6.93;;;;;;;7.36;100.00;102318.19;5072366;28;20107;-70
2022/09/22 05:50:41;;;;;;;11.43;6.90;;;;;;;7.38;100.00;102326.13;5072129;28;20016;-70
2022/09/22 05:53:09;;;;;;;11.27;6.75;;;;;;;7.38;100.00;102324.41;5072240;28;20024;-73
2022/09/22 05:55:35;;;;;;;12.18;7.18;;;;;;;7.40;100.00;102325.38;5071435;28;20361;-72
2022/09/22 05:58:01;;;;;;;12.75;7.28;;;;;;;7.42;100.00;102329.00;5071765;28;20103;-71
2022/09/22 06:00:27;;;;;;;12.18;7.65;;;;;;;7.44;100.00;102321.22;5072395;28;20090;-71
2022/09/22 06:02:52;;;;;;;14.30;7.28;;;;;;;7.47;100.00;102325.72;5073097;28;20032;-71
2022/09/22 06:05:18;;;;;;;15.38;8.48;;;;;;;7.50;100.00;102321.56;5072411;28;20051;-71
2022/09/22 06:07:43;;;;;;;14.45;7.80;;;;;;;7.53;100.00;102326.94;5072643;28;20377;-73
2022/09/22 06:10:11;;;;;;;13.07;6.93;;;;;;;7.56;100.00;102313.13;5052020;28;20046;-71
2022/09/22 06:12:38;;;;;;;11.10;6.93;;;;;;;7.59;100.00;102313.28;5071474;28;20103;-70
2022/09/22 06:15:04;;;;;;;13.98;7.88;;;;;;;7.62;100.00;102309.91;5069697;28;20093;-71
2022/09/22 06:17:30;;;;;;;11.82;6.57;;;;;;;7.62;100.00;102321.28;5070220;28;20172;-71
2022/09/22 06:19:55;;;;;;;11.75;7.45;;;;;;;7.66;100.00;102312.75;5072493;28;20133;-70
2022/09/22 06:22:22;;;;;;;13.02;8.25;;;;;;;7.71;100.00;102316.53;5072567;28;20107;-70
2022/09/22 06:24:49;;;;;;;11.80;7.28;;;;;;;7.76;100.00;102322.91;5071928;28;20025;-69
2022/09/22 06:27:14;;;;;;;10.77;7.35;;;;;;;7.81;100.00;102312.66;5071002;28;20040;-70
2022/09/22 06:29:40;;;;;;;11.70;7.68;;;;;;;7.87;100.00;102317.34;5074764;28;20020;-70
2022/09/22 06:32:09;;;;;;;14.85;8.32;;;;;;;7.92;100.00;102315.81;5073063;28;20484;-70
2022/09/22 06:34:35;;;;;;;15.27;8.75;;;;;;;7.98;100.00;102310.91;5059190;28;20109;-71
2022/09/22 06:37:01;;;;;;;21.33;9.63;;;;;;;8.04;100.00;102316.44;5071994;28;20024;-70
2022/09/22 06:39:26;;;;;;;14.73;9.57;;;;;;;8.12;100.00;102314.22;5072465;28;20368;-72
2022/09/22 06:41:54;;;;;;;20.85;12.20;;;;;;;8.17;100.00;102315.34;5042673;28;20040;-72
2022/09/22 06:44:20;;;;;;;26.00;12.40;;;;;;;8.23;100.00;102317.38;5071704;28;20476;-73
2022/09/22 06:46:45;;;;;;;24.63;14.38;;;;;;;8.31;100.00;102310.78;5070381;28;20029;-73
2022/09/22 06:49:11;;;;;;;20.55;14.57;;;;;;;8.40;100.00;102310.38;5072079;28;20445;-72
2022/09/22 06:51:37;;;;;;;27.23;17.00;;;;;;;8.47;100.00;102304.63;5071590;28;20024;-72
2022/09/22 06:54:04;;;;;;;34.20;20.73;;;;;;;8.56;100.00;102307.69;5072538;28;20063;-73
2022/09/22 06:56:34;;;;;;;34.78;20.80;;;;;;;8.70;100.00;102307.47;5072464;28;20468;-72
2022/09/22 06:59:00;;;;;;;29.40;19.20;;;;;;;8.81;100.00;102302.72;5072479;28;20094;-73
2022/09/22 07:01:27;;;;;;;36.55;24.52;;;;;;;8.92;100.00;102296.25;5072328;28;20025;-74
2022/09/22 07:03:53;;;;;;;37.08;24.08;;;;;;;9.04;100.00;102302.06;5072080;28;20033;-73
2022/09/22 07:06:18;;;;;;;38.60;24.38;;;;;;;9.16;100.00;102300.84;5071321;28;20112;-73
2022/09/22 07:08:46;;;;;;;33.88;23.65;;;;;;;9.27;100.00;102302.22;5072140;28;20060;-73
2022/09/22 07:11:13;;;;;;;35.58;24.50;;;;;;;9.36;100.00;102292.13;5057206;28;20439;-73
2022/09/22 07:13:41;;;;;;;32.95;22.85;;;;;;;9.47;100.00;102294.31;5034289;28;20092;-72
2022/09/22 07:16:19;;;;;;;33.22;23.40;;;;;;;9.55;100.00;102292.94;5017529;28;20024;-73
2022/09/22 07:18:49;;;;;;;31.00;22.50;;;;;;;9.63;100.00;102304.72;5052600;28;20036;-72
2022/09/22 07:21:26;;;;;;;29.40;21.27;;;;;;;9.75;100.00;102300.00;5052007;28;20021;-72
2022/09/22 07:23:56;;;;;;;26.48;20.63;;;;;;;9.84;100.00;102295.97;5051968;28;20083;-72
2022/09/22 07:26:33;;;;;;;24.90;19.65;;;;;;;9.92;100.00;102297.19;5054328;28;20029;-72
2022/09/22 07:29:01;;;;;;;32.30;20.83;;;;;;;10.00;100.00;102290.50;5055543;28;20060;-72
2022/09/22 07:31:29;;;;;;;35.30;20.42;;;;;;;10.06;100.00;102290.75;5055485;28;20486;-72
2022/09/22 07:33:55;;;;;;;28.88;20.10;;;;;;;10.11;100.00;102288.34;5054711;28;20056;-72
2022/09/22 07:36:24;;;;;;;36.83;21.02;;;;;;;10.17;100.00;102290.31;5054776;28;20467;-72
2022/09/22 07:38:51;;;;;;;30.00;20.08;;;;;;;10.23;100.00;102293.22;5055680;28;20021;-72
2022/09/22 07:41:22;;;;;;;29.13;18.98;;;;;;;10.31;100.00;102294.44;5055866;28;20112;-72
2022/09/22 07:43:49;;;;;;;32.17;21.15;;;;;;;10.38;100.00;102291.22;5055704;28;20777;-72
2022/09/22 07:46:15;;;;;;;32.35;19.40;;;;;;;10.45;100.00;102295.91;5055366;28;20052;-71
2022/09/22 07:51:07;;;;;;;29.80;19.98;;;;;;;10.58;100.00;102296.38;5054851;28;20017;-72
2022/09/22 07:53:38;;;;;;;27.02;18.33;;;;;;;10.65;100.00;102290.56;5055394;28;20025;-71
2022/09/22 07:56:13;;;;;;;31.67;19.52;;;;;;;10.72;100.00;102286.44;5055036;28;20116;-72
2022/09/22 07:58:50;;;;;;;30.10;18.20;;;;;;;10.83;100.00;102287.72;5053003;28;20025;-71
2022/09/22 08:01:17;;;;;;;25.27;18.35;;;;;;;10.96;100.00;102286.50;5055546;28;20021;-71
2022/09/22 08:03:44;;;;;;;24.80;17.38;;;;;;;11.06;100.00;102279.81;5054398;28;20032;-72
2022/09/22 08:06:10;;;;;;;21.55;16.77;;;;;;;11.16;100.00;102281.94;5053870;28;20086;-72
2022/09/22 08:08:39;;;;;;;23.00;17.20;;;;;;;11.26;100.00;102277.94;5054437;28;20448;-72
2022/09/22 08:11:16;;;;;;;25.67;16.38;;;;;;;11.39;100.00;102279.28;5066131;28;20635;-73
2022/09/22 08:13:43;;;;;;;20.13;14.73;;;;;;;11.48;100.00;102284.88;5074006;28;20112;-73
2022/09/22 08:16:10;;;;;;;27.27;17.10;;;;;;;11.54;100.00;102274.53;5074095;28;20054;-72
2022/09/22 08:18:36;;;;;;;21.75;14.77;;;;;;;11.62;100.00;102275.72;5074092;28;20170;-72
2022/09/22 08:21:03;;;;;;;25.70;16.27;;;;;;;11.70;100.00;102275.09;5072771;28;20028;-73
2022/09/22 08:23:30;;;;;;;18.23;13.73;;;;;;;11.81;100.00;102268.44;5074098;28;20103;-73
2022/09/22 08:26:02;;;;;;;29.13;15.98;;;;;;;11.96;100.00;102273.38;5073928;28;20025;-72
2022/09/22 08:28:28;;;;;;;24.35;14.32;;;;;;;12.09;100.00;102270.31;5056003;28;20025;-72
2022/09/22 08:30:53;;;;;;;19.98;14.02;;;;;;;12.21;100.00;102268.91;5073639;28;20021;-72
2022/09/22 08:33:19;;;;;;;18.52;13.07;;;;;;;12.32;100.00;102265.78;5073939;28;20024;-72
2022/09/22 08:35:55;;;;;;;15.73;12.65;;;;;;;12.44;100.00;102267.03;5073282;28;20028;-72
2022/09/22 08:38:22;;;;;;;16.08;12.40;;;;;;;12.52;100.00;102269.91;5073280;28;20442;-71
2022/09/22 08:41:16;;;;;;;22.23;12.27;;;;;;;12.64;100.00;102265.00;5073293;28;20464;-72
2022/09/22 08:43:49;;;;;;;17.85;12.43;;;;;;;12.81;100.00;102271.69;5042610;28;20040;-72
2022/09/22 08:46:14;;;;;;;18.37;12.03;;;;;;;12.94;100.00;102269.41;5073965;28;20032;-74
2022/09/22 08:51:54;;;;;;;16.60;11.60;;;;;;;13.29;100.00;102262.53;5038126;28;20118;-73
2022/09/22 08:54:30;;;;;;;19.20;12.05;;;;;;;13.47;100.00;102263.94;5074328;28;20047;-73
2022/09/22 08:57:21;;;;;;;16.52;12.60;;;;;;;13.69;100.00;102267.13;5073849;28;20020;-72
2022/09/22 09:00:11;;;;;;;15.82;12.82;;;;;;;13.92;100.00;102265.13;5074029;28;20033;-72
2022/09/22 09:02:44;;;;;;;19.15;12.27;;;;;;;14.14;100.00;102261.25;5062145;28;20500;-73
2022/09/22 09:05:12;;;;;;;16.45;12.80;;;;;;;14.37;100.00;102264.44;5072822;28;20020;-73
2022/09/22 09:08:05;;;;;;;20.58;11.77;;;;;;;14.59;100.00;102270.25;5055008;28;20048;-72
2022/09/22 09:10:52;;;;;;;18.15;11.65;;;;;;;14.81;100.00;102264.63;5072629;28;20044;-73
2022/09/22 09:13:30;;;;;;;14.15;9.95;;;;;;;15.04;100.00;102264.19;5070197;28;20025;-73
2022/09/22 09:16:04;;;;;;;14.20;10.98;;;;;;;15.20;100.00;102267.19;5068895;28;20052;-71
2022/09/22 09:18:38;;;;;;;14.25;9.75;;;;;;;15.32;100.00;102275.38;5071482;28;20400;-72
2022/09/22 09:21:12;;;;;;;17.55;9.95;;;;;;;15.51;100.00;102277.50;5072487;28;20025;-72
2022/09/22 09:23:45;;;;;;;16.48;10.18;;;;;;;15.67;100.00;102281.34;5072357;28;20123;-72
2022/09/22 09:26:14;;;;;;;17.45;10.10;;;;;;;15.79;100.00;102267.41;5072462;28;20056;-72
2022/09/22 09:29:14;;;;;;;14.43;8.23;;;;;;;16.04;100.00;102278.50;5068411;28;20028;-73
2022/09/22 09:31:51;;;;;;;11.27;8.40;;;;;;;16.17;100.00;102268.97;5053826;28;20048;-71
2022/09/22 09:34:20;;;;;;;15.15;9.27;;;;;;;16.21;100.00;102278.78;5055294;28;20024;-73
2022/09/22 09:36:54;;;;;;;18.58;10.13;;;;;;;16.30;100.00;102272.72;5073240;28;20025;-71
2022/09/22 09:39:28;;;;;;;13.38;8.88;;;;;;;16.43;100.00;102276.47;5071948;28;20028;-71
2022/09/22 09:41:54;;;;;;;10.45;7.43;;;;;;;16.62;100.00;102277.63;5073318;28;20070;-71
2022/09/22 09:44:29;;;;;;;10.98;8.30;;;;;;;16.81;96.32;102277.00;5073033;28;20025;-71
2022/09/22 09:47:03;;;;;;;9.05;7.35;;;;;;;16.94;100.00;102280.78;5071805;28;20020;-71
2022/09/22 09:49:29;;;;;;;12.80;7.45;;;;;;;17.12;100.00;102272.13;5071105;28;20562;-72
2022/09/22 09:51:58;;;;;;;11.98;7.10;;;;;;;17.40;98.24;102280.41;5071711;28;20032;-71
2022/09/22 09:54:26;;;;;;;11.38;7.38;;;;;;;17.70;96.31;102266.56;5071633;28;20040;-71
2022/09/22 09:57:11;;;;;;;13.65;7.55;;;;;;;17.89;96.19;102268.50;5072897;28;20048;-70
2022/09/22 10:02:28;;;;;;;9.50;6.72;;;;;;;18.42;93.67;102270.75;5067832;28;20031;-71
2022/09/22 10:05:00;;;;;;;14.25;7.93;;;;;;;18.69;91.65;102263.78;5071743;28;20025;-72
2022/09/22 10:07:29;;;;;;;13.65;7.57;;;;;;;18.77;87.31;102264.69;5072828;28;20028;-71
2022/09/22 10:10:18;;;;;;;14.30;6.88;;;;;;;18.77;81.59;102262.03;5072453;28;20111;-72
2022/09/22 10:12:44;;;;;;;10.07;7.38;;;;;;;18.65;74.76;102257.56;5072506;28;20094;-71
2022/09/22 10:15:22;;;;;;;12.68;7.50;;;;;;;18.66;84.47;102247.78;5072473;28;20078;-72
2022/09/22 10:17:48;;;;;;;10.35;6.45;;;;;;;18.71;73.73;102256.69;5072755;28;20024;-71
2022/09/22 10:20:19;;;;;;;12.32;6.57;;;;;;;18.74;78.74;102246.03;5072402;28;20025;-72
2022/09/22 10:22:44;;;;;;;8.90;5.93;;;;;;;18.85;72.41;102246.97;5071142;28;20474;-71
2022/09/22 10:25:19;;;;;;;9.88;5.97;;;;;;;18.68;71.25;102252.22;5071972;28;20059;-71
2022/09/22 10:28:00;;;;;;;8.10;5.78;;;;;;;18.69;71.97;102243.34;5072577;28;20024;-72
2022/09/22 10:30:26;;;;;;;9.40;7.38;;;;;;;19.00;76.40;102242.63;5072467;28;20047;-71
2022/09/22 10:33:10;;;;;;;10.82;8.07;;;;;;;19.23;79.78;102242.69;5072380;28;20027;-71
2022/09/22 10:35:36;;;;;;;12.63;5.97;;;;;;;19.32;69.64;102233.84;5070838;28;20103;-72
2022/09/22 10:38:22;;;;;;;10.65;5.93;;;;;;;19.46;71.66;102236.53;5070757;28;20139;-71
2022/09/22 10:40:58;;;;;;;9.90;6.10;;;;;;;19.55;69.75;102232.09;5065114;28;20032;-72
2022/09/22 10:43:39;;;;;;;8.95;5.90;;;;;;;19.54;67.43;102230.31;5072267;28;20036;-71
2022/09/22 10:46:18;;;;;;;8.57;5.55;;;;;;;19.84;67.79;102225.03;5071123;28;20468;-71
2022/09/22 10:48:52;;;;;;;8.48;6.35;;;;;;;19.94;63.40;102217.91;5068815;28;20031;-71
2022/09/22 10:51:36;;;;;;;7.15;5.45;;;;;;;20.14;71.21;102216.09;5071170;28;20027;-71
2022/09/22 10:54:19;;;;;;;8.88;5.32;;;;;;;20.02;65.69;102218.78;5071236;28;20028;-71
2022/09/22 10:57:08;;;;;;;8.15;5.47;;;;;;;20.34;61.49;102212.50;5063159;28;20047;-71
2022/09/22 11:00:03;;;;;;;8.20;5.03;;;;;;;20.51;59.45;102205.34;5064900;28;20523;-72
2022/09/22 11:02:47;;;;;;;8.57;5.15;;;;;;;20.74;62.69;102207.09;5070279;28;20099;-70
2022/09/22 11:12:15;;;;;;;6.68;3.53;;;;;;;20.58;53.13;102200.88;5076667;28;20070;-70
2022/09/22 11:15:16;;;;;;;6.72;4.00;;;;;;;20.34;59.38;102201.81;5073472;28;20025;-71
2022/09/22 11:18:06;;;;;;;7.43;3.20;;;;;;;20.87;54.80;102203.44;5006242;28;20036;-70
2022/09/22 11:20:47;;;;;;;5.70;4.00;;;;;;;20.60;49.11;102190.16;5075631;28;20131;-71
2022/09/22 11:23:48;;;;;;;8.52;3.97;;;;;;;20.64;51.65;102194.59;5076093;28;20039;-72
2022/09/22 11:26:46;;;;;;;10.85;3.83;;;;;;;20.62;50.19;102196.38;5061080;28;20033;-72
2022/09/22 11:29:23;;;;;;;6.15;3.35;;;;;;;21.00;57.68;102200.72;5075473;28;20368;-71
2022/09/22 11:32:24;;;;;;;5.60;3.45;;;;;;;21.01;53.61;102186.44;5074709;28;20017;-72
2022/09/22 11:35:07;;;;;;;3.67;2.80;;;;;;;21.64;50.65;102182.47;5074341;28;20033;-71
2022/09/22 11:37:49;;;;;;;4.85;1.77;;;;;;;21.93;47.08;102181.31;5055148;28;20044;-71
2022/09/22 11:40:41;;;;;;;4.88;1.90;;;;;;;22.17;45.38;102173.03;5071257;28;20029;-73
2022/09/22 11:43:37;;;;;;;6.35;1.88;;;;;;;21.71;42.04;102170.81;5074737;28;20078;-71
2022/09/22 11:46:11;;;;;;;5.03;1.83;;;;;;;21.69;49.59;102164.56;5074805;28;20024;-71
2022/09/22 11:49:22;;;;;;;3.22;1.30;;;;;;;21.83;42.19;102159.97;5074524;28;20028;-72
2022/09/22 11:52:06;;;;;;;7.70;1.90;;;;;;;22.17;43.42;102156.94;5070569;28;20373;-71